sensor_id;sensor_type;location;lat;lon;timestamp;P1;durP1;ratioP1;P2;durP2;ratioP2
1328;SDS011;658;48.820;9.354;2022-12-31T00:00:20;0.80;;;0.80;;
1328;SDS011;658;48.820;9.354;2022-12-31T00:04:20;0.70;;;0.70;;
1328;SDS011;658;48.820;9.354;2022-12-31T00:08:21;1.10;;;0.73;;
1328;SDS011;658;48.820;9.354;2022-12-31T00:12:22;0.63;;;0.63;;
1328;SDS011;658;48.820;9.354;2022-12-31T00:16:24;1.43;;;0.73;;
1328;SDS011;658;48.820;9.354;2022-12-31T00:20:30;2.30;;;0.60;;
1328;SDS011;658;48.820;9.354;2022-12-31T00:24:30;0.50;;;0.50;;
1328;SDS011;658;48.820;9.354;2022-12-31T00:28:32;1.37;;;0.60;;
1328;SDS011;658;48.820;9.354;2022-12-31T00:32:34;1.17;;;0.90;;
1328;SDS011;658;48.820;9.354;2022-12-31T00:36:35;0.80;;;0.80;;
1328;SDS011;658;48.820;9.354;2022-12-31T00:40:37;0.50;;;0.50;;
1328;SDS011;658;48.820;9.354;2022-12-31T00:44:38;0.60;;;0.60;;
1328;SDS011;658;48.820;9.354;2022-12-31T00:48:39;1.47;;;0.60;;
1328;SDS011;658;48.820;9.354;2022-12-31T00:52:40;0.60;;;0.60;;
1328;SDS011;658;48.820;9.354;2022-12-31T00:56:41;2.83;;;0.60;;
1328;SDS011;658;48.820;9.354;2022-12-31T01:00:42;0.67;;;0.60;;
1328;SDS011;658;48.820;9.354;2022-12-31T01:04:43;0.50;;;0.50;;
1328;SDS011;658;48.820;9.354;2022-12-31T01:08:43;0.60;;;0.60;;
1328;SDS011;658;48.820;9.354;2022-12-31T01:12:46;1.03;;;0.43;;
1328;SDS011;658;48.820;9.354;2022-12-31T01:16:48;1.00;;;0.80;;
1328;SDS011;658;48.820;9.354;2022-12-31T01:20:50;0.73;;;0.50;;
1328;SDS011;658;48.820;9.354;2022-12-31T01:24:51;1.17;;;0.60;;
1328;SDS011;658;48.820;9.354;2022-12-31T01:28:51;1.17;;;0.60;;
1328;SDS011;658;48.820;9.354;2022-12-31T01:32:52;0.50;;;0.50;;
1328;SDS011;658;48.820;9.354;2022-12-31T01:36:52;1.30;;;0.47;;
1328;SDS011;658;48.820;9.354;2022-12-31T01:40:53;0.80;;;0.50;;
1328;SDS011;658;48.820;9.354;2022-12-31T01:44:54;0.97;;;0.50;;
1328;SDS011;658;48.820;9.354;2022-12-31T01:48:56;0.70;;;0.70;;
1328;SDS011;658;48.820;9.354;2022-12-31T01:53:01;2.10;;;0.53;;
1328;SDS011;658;48.820;9.354;2022-12-31T01:57:04;0.50;;;0.50;;
1328;SDS011;658;48.820;9.354;2022-12-31T02:01:05;0.60;;;0.60;;
1328;SDS011;658;48.820;9.354;2022-12-31T02:05:52;0.53;;;0.53;;
1328;SDS011;658;48.820;9.354;2022-12-31T02:09:51;1.10;;;0.57;;
1328;SDS011;658;48.820;9.354;2022-12-31T02:13:53;0.50;;;0.50;;
1328;SDS011;658;48.820;9.354;2022-12-31T02:26:42;0.50;;;0.50;;
1328;SDS011;658;48.820;9.354;2022-12-31T02:31:00;0.60;;;0.50;;
1328;SDS011;658;48.820;9.354;2022-12-31T02:35:11;0.77;;;0.70;;
1328;SDS011;658;48.820;9.354;2022-12-31T02:39:19;0.60;;;0.60;;
1328;SDS011;658;48.820;9.354;2022-12-31T02:43:21;0.77;;;0.67;;
1328;SDS011;658;48.820;9.354;2022-12-31T02:51:37;0.90;;;0.70;;
1328;SDS011;658;48.820;9.354;2022-12-31T02:55:51;0.50;;;0.50;;
1328;SDS011;658;48.820;9.354;2022-12-31T03:00:01;0.73;;;0.50;;
1328;SDS011;658;48.820;9.354;2022-12-31T03:04:24;0.60;;;0.50;;
1328;SDS011;658;48.820;9.354;2022-12-31T03:08:32;0.40;;;0.40;;
1328;SDS011;658;48.820;9.354;2022-12-31T03:12:53;0.70;;;0.60;;
1328;SDS011;658;48.820;9.354;2022-12-31T03:16:53;0.43;;;0.43;;
1328;SDS011;658;48.820;9.354;2022-12-31T03:20:54;1.00;;;0.60;;
1328;SDS011;658;48.820;9.354;2022-12-31T03:25:16;0.60;;;0.50;;
1328;SDS011;658;48.820;9.354;2022-12-31T03:29:33;0.50;;;0.50;;
1328;SDS011;658;48.820;9.354;2022-12-31T03:33:35;0.60;;;0.60;;
1328;SDS011;658;48.820;9.354;2022-12-31T03:37:39;0.80;;;0.60;;
1328;SDS011;658;48.820;9.354;2022-12-31T03:41:40;0.40;;;0.30;;
1328;SDS011;658;48.820;9.354;2022-12-31T03:45:40;0.67;;;0.67;;
1328;SDS011;658;48.820;9.354;2022-12-31T03:49:41;0.90;;;0.60;;
1328;SDS011;658;48.820;9.354;2022-12-31T03:53:42;0.53;;;0.50;;
1328;SDS011;658;48.820;9.354;2022-12-31T03:57:42;0.80;;;0.50;;
1328;SDS011;658;48.820;9.354;2022-12-31T04:01:43;0.40;;;0.40;;
1328;SDS011;658;48.820;9.354;2022-12-31T04:05:43;0.77;;;0.50;;
1328;SDS011;658;48.820;9.354;2022-12-31T04:09:50;0.70;;;0.70;;
1328;SDS011;658;48.820;9.354;2022-12-31T04:13:51;0.40;;;0.40;;
1328;SDS011;658;48.820;9.354;2022-12-31T04:17:51;0.50;;;0.40;;
1328;SDS011;658;48.820;9.354;2022-12-31T04:21:52;1.90;;;0.40;;
1328;SDS011;658;48.820;9.354;2022-12-31T04:25:52;0.60;;;0.60;;
1328;SDS011;658;48.820;9.354;2022-12-31T04:29:53;0.60;;;0.40;;
1328;SDS011;658;48.820;9.354;2022-12-31T04:33:54;0.60;;;0.60;;
1328;SDS011;658;48.820;9.354;2022-12-31T04:37:54;0.50;;;0.50;;
1328;SDS011;658;48.820;9.354;2022-12-31T04:41:55;0.40;;;0.40;;
1328;SDS011;658;48.820;9.354;2022-12-31T04:45:55;0.53;;;0.53;;
1328;SDS011;658;48.820;9.354;2022-12-31T04:49:56;0.57;;;0.50;;
1328;SDS011;658;48.820;9.354;2022-12-31T04:53:56;1.80;;;1.07;;
1328;SDS011;658;48.820;9.354;2022-12-31T04:57:57;0.50;;;0.40;;
1328;SDS011;658;48.820;9.354;2022-12-31T05:01:58;0.93;;;0.40;;
1328;SDS011;658;48.820;9.354;2022-12-31T05:06:09;0.50;;;0.50;;
1328;SDS011;658;48.820;9.354;2022-12-31T05:10:18;1.97;;;0.70;;
1328;SDS011;658;48.820;9.354;2022-12-31T05:14:18;0.90;;;0.60;;
1328;SDS011;658;48.820;9.354;2022-12-31T05:18:19;0.77;;;0.50;;
1328;SDS011;658;48.820;9.354;2022-12-31T05:22:20;0.53;;;0.53;;
1328;SDS011;658;48.820;9.354;2022-12-31T05:26:30;0.50;;;0.50;;
1328;SDS011;658;48.820;9.354;2022-12-31T05:30:30;0.50;;;0.50;;
1328;SDS011;658;48.820;9.354;2022-12-31T05:34:31;0.40;;;0.40;;
1328;SDS011;658;48.820;9.354;2022-12-31T05:38:31;0.50;;;0.50;;
1328;SDS011;658;48.820;9.354;2022-12-31T05:42:32;0.40;;;0.40;;
1328;SDS011;658;48.820;9.354;2022-12-31T05:46:33;0.50;;;0.50;;
1328;SDS011;658;48.820;9.354;2022-12-31T05:50:33;0.50;;;0.50;;
1328;SDS011;658;48.820;9.354;2022-12-31T05:54:34;0.40;;;0.40;;
1328;SDS011;658;48.820;9.354;2022-12-31T05:58:35;0.60;;;0.53;;
1328;SDS011;658;48.820;9.354;2022-12-31T06:02:36;2.00;;;0.60;;
1328;SDS011;658;48.820;9.354;2022-12-31T06:06:36;0.50;;;0.50;;
1328;SDS011;658;48.820;9.354;2022-12-31T06:10:37;0.90;;;0.40;;
1328;SDS011;658;48.820;9.354;2022-12-31T06:14:38;0.53;;;0.53;;
1328;SDS011;658;48.820;9.354;2022-12-31T06:18:39;0.60;;;0.60;;
1328;SDS011;658;48.820;9.354;2022-12-31T06:22:39;0.60;;;0.60;;
1328;SDS011;658;48.820;9.354;2022-12-31T06:26:40;0.50;;;0.47;;
1328;SDS011;658;48.820;9.354;2022-12-31T06:30:40;0.40;;;0.40;;
1328;SDS011;658;48.820;9.354;2022-12-31T06:34:41;0.50;;;0.50;;
1328;SDS011;658;48.820;9.354;2022-12-31T06:38:42;0.53;;;0.50;;
1328;SDS011;658;48.820;9.354;2022-12-31T06:42:43;0.37;;;0.33;;
1328;SDS011;658;48.820;9.354;2022-12-31T06:46:44;0.60;;;0.50;;
1328;SDS011;658;48.820;9.354;2022-12-31T06:50:44;0.60;;;0.60;;
1328;SDS011;658;48.820;9.354;2022-12-31T06:54:45;0.60;;;0.60;;
1328;SDS011;658;48.820;9.354;2022-12-31T06:58:46;0.80;;;0.40;;
1328;SDS011;658;48.820;9.354;2022-12-31T07:03:04;0.60;;;0.40;;
1328;SDS011;658;48.820;9.354;2022-12-31T07:07:34;0.50;;;0.40;;
1328;SDS011;658;48.820;9.354;2022-12-31T07:12:01;1.00;;;0.40;;
1328;SDS011;658;48.820;9.354;2022-12-31T07:20:48;0.57;;;0.50;;
1328;SDS011;658;48.820;9.354;2022-12-31T07:24:49;0.60;;;0.47;;
1328;SDS011;658;48.820;9.354;2022-12-31T07:28:53;0.40;;;0.30;;
1328;SDS011;658;48.820;9.354;2022-12-31T07:42:21;0.50;;;0.50;;
1328;SDS011;658;48.820;9.354;2022-12-31T07:46:44;0.40;;;0.40;;
1328;SDS011;658;48.820;9.354;2022-12-31T07:50:56;0.50;;;0.50;;
1328;SDS011;658;48.820;9.354;2022-12-31T07:54:57;0.50;;;0.50;;
1328;SDS011;658;48.820;9.354;2022-12-31T07:59:12;5.07;;;0.70;;
1328;SDS011;658;48.820;9.354;2022-12-31T08:03:24;0.60;;;0.60;;
1328;SDS011;658;48.820;9.354;2022-12-31T08:07:52;1.00;;;0.50;;
1328;SDS011;658;48.820;9.354;2022-12-31T08:12:17;1.63;;;0.50;;
1328;SDS011;658;48.820;9.354;2022-12-31T08:16:20;2.30;;;0.50;;
1328;SDS011;658;48.820;9.354;2022-12-31T08:20:20;1.23;;;0.73;;
1328;SDS011;658;48.820;9.354;2022-12-31T08:33:18;0.70;;;0.50;;
1328;SDS011;658;48.820;9.354;2022-12-31T08:38:04;1.73;;;0.40;;
1328;SDS011;658;48.820;9.354;2022-12-31T08:42:02;0.87;;;0.40;;
1328;SDS011;658;48.820;9.354;2022-12-31T08:46:11;0.50;;;0.50;;
1328;SDS011;658;48.820;9.354;2022-12-31T08:50:21;1.30;;;0.60;;
1328;SDS011;658;48.820;9.354;2022-12-31T08:54:22;1.00;;;0.57;;
1328;SDS011;658;48.820;9.354;2022-12-31T09:02:48;0.60;;;0.60;;
1328;SDS011;658;48.820;9.354;2022-12-31T09:06:59;0.50;;;0.40;;
1328;SDS011;658;48.820;9.354;2022-12-31T09:11:06;0.53;;;0.50;;
1328;SDS011;658;48.820;9.354;2022-12-31T09:19:19;0.73;;;0.57;;
1328;SDS011;658;48.820;9.354;2022-12-31T09:23:20;0.50;;;0.50;;
1328;SDS011;658;48.820;9.354;2022-12-31T09:27:29;0.40;;;0.40;;
1328;SDS011;658;48.820;9.354;2022-12-31T09:31:54;0.40;;;0.40;;
1328;SDS011;658;48.820;9.354;2022-12-31T09:36:18;0.60;;;0.50;;
1328;SDS011;658;48.820;9.354;2022-12-31T09:58:00;0.40;;;0.40;;
1328;SDS011;658;48.820;9.354;2022-12-31T10:06:44;0.50;;;0.50;;
1328;SDS011;658;48.820;9.354;2022-12-31T10:10:55;0.60;;;0.40;;
1328;SDS011;658;48.820;9.354;2022-12-31T10:15:31;0.43;;;0.40;;
1328;SDS011;658;48.820;9.354;2022-12-31T10:28:48;0.47;;;0.40;;
1328;SDS011;658;48.820;9.354;2022-12-31T10:33:15;0.87;;;0.30;;
1328;SDS011;658;48.820;9.354;2022-12-31T10:37:18;0.53;;;0.50;;
1328;SDS011;658;48.820;9.354;2022-12-31T10:55:11;0.33;;;0.33;;
1328;SDS011;658;48.820;9.354;2022-12-31T11:25:22;0.40;;;0.40;;
1328;SDS011;658;48.820;9.354;2022-12-31T11:29:42;0.43;;;0.43;;
1328;SDS011;658;48.820;9.354;2022-12-31T11:38:24;0.50;;;0.40;;
1328;SDS011;658;48.820;9.354;2022-12-31T11:47:01;0.40;;;0.40;;
1328;SDS011;658;48.820;9.354;2022-12-31T11:55:43;0.40;;;0.40;;
1328;SDS011;658;48.820;9.354;2022-12-31T11:59:55;0.50;;;0.40;;
1328;SDS011;658;48.820;9.354;2022-12-31T12:03:59;0.40;;;0.40;;
1328;SDS011;658;48.820;9.354;2022-12-31T12:08:00;0.50;;;0.40;;
1328;SDS011;658;48.820;9.354;2022-12-31T12:12:02;2.50;;;0.50;;
1328;SDS011;658;48.820;9.354;2022-12-31T12:16:05;1.23;;;0.40;;
1328;SDS011;658;48.820;9.354;2022-12-31T12:20:14;1.03;;;0.40;;
1328;SDS011;658;48.820;9.354;2022-12-31T12:28:27;0.67;;;0.40;;
1328;SDS011;658;48.820;9.354;2022-12-31T12:32:29;0.40;;;0.40;;
1328;SDS011;658;48.820;9.354;2022-12-31T12:36:30;0.50;;;0.40;;
1328;SDS011;658;48.820;9.354;2022-12-31T12:40:31;0.40;;;0.40;;
1328;SDS011;658;48.820;9.354;2022-12-31T12:44:33;0.40;;;0.40;;
1328;SDS011;658;48.820;9.354;2022-12-31T12:48:39;0.40;;;0.40;;
1328;SDS011;658;48.820;9.354;2022-12-31T13:01:24;0.50;;;0.50;;
1328;SDS011;658;48.820;9.354;2022-12-31T13:26:38;0.40;;;0.40;;
1328;SDS011;658;48.820;9.354;2022-12-31T13:30:47;0.40;;;0.40;;
1328;SDS011;658;48.820;9.354;2022-12-31T13:34:53;0.40;;;0.40;;
1328;SDS011;658;48.820;9.354;2022-12-31T13:39:58;0.40;;;0.40;;
1328;SDS011;658;48.820;9.354;2022-12-31T13:43:58;0.50;;;0.40;;
1328;SDS011;658;48.820;9.354;2022-12-31T13:48:13;0.40;;;0.30;;
1328;SDS011;658;48.820;9.354;2022-12-31T13:56:47;0.40;;;0.37;;
1328;SDS011;658;48.820;9.354;2022-12-31T14:01:34;1.00;;;0.70;;
1328;SDS011;658;48.820;9.354;2022-12-31T14:09:22;0.40;;;0.40;;
1328;SDS011;658;48.820;9.354;2022-12-31T14:26:04;0.63;;;0.50;;
1328;SDS011;658;48.820;9.354;2022-12-31T14:30:14;0.40;;;0.30;;
1328;SDS011;658;48.820;9.354;2022-12-31T14:34:39;0.50;;;0.50;;
1328;SDS011;658;48.820;9.354;2022-12-31T14:39:12;0.33;;;0.30;;
1328;SDS011;658;48.820;9.354;2022-12-31T14:52:25;0.70;;;0.60;;
1328;SDS011;658;48.820;9.354;2022-12-31T14:56:41;0.40;;;0.40;;
1328;SDS011;658;48.820;9.354;2022-12-31T15:00:50;0.43;;;0.43;;
1328;SDS011;658;48.820;9.354;2022-12-31T15:22:44;0.40;;;0.40;;
1328;SDS011;658;48.820;9.354;2022-12-31T15:26:48;0.40;;;0.40;;
1328;SDS011;658;48.820;9.354;2022-12-31T15:30:51;0.70;;;0.60;;
1328;SDS011;658;48.820;9.354;2022-12-31T15:35:01;0.53;;;0.53;;
1328;SDS011;658;48.820;9.354;2022-12-31T15:43:12;0.50;;;0.50;;
1328;SDS011;658;48.820;9.354;2022-12-31T15:47:37;0.43;;;0.43;;
1328;SDS011;658;48.820;9.354;2022-12-31T15:51:49;0.90;;;0.60;;
1328;SDS011;658;48.820;9.354;2022-12-31T15:56:00;0.40;;;0.40;;
1328;SDS011;658;48.820;9.354;2022-12-31T16:00:14;0.63;;;0.63;;
1328;SDS011;658;48.820;9.354;2022-12-31T16:04:24;0.57;;;0.43;;
1328;SDS011;658;48.820;9.354;2022-12-31T16:08:32;0.80;;;0.60;;
1328;SDS011;658;48.820;9.354;2022-12-31T16:12:34;0.50;;;0.50;;
1328;SDS011;658;48.820;9.354;2022-12-31T16:16:38;0.60;;;0.60;;
1328;SDS011;658;48.820;9.354;2022-12-31T16:20:43;0.40;;;0.40;;
1328;SDS011;658;48.820;9.354;2022-12-31T16:24:52;0.53;;;0.53;;
1328;SDS011;658;48.820;9.354;2022-12-31T16:28:59;0.60;;;0.60;;
1328;SDS011;658;48.820;9.354;2022-12-31T16:33:04;0.50;;;0.50;;
1328;SDS011;658;48.820;9.354;2022-12-31T16:37:13;0.60;;;0.50;;
1328;SDS011;658;48.820;9.354;2022-12-31T16:41:16;0.60;;;0.60;;
1328;SDS011;658;48.820;9.354;2022-12-31T16:49:30;0.90;;;0.70;;
1328;SDS011;658;48.820;9.354;2022-12-31T16:53:35;0.50;;;0.50;;
1328;SDS011;658;48.820;9.354;2022-12-31T16:57:37;0.70;;;0.70;;
1328;SDS011;658;48.820;9.354;2022-12-31T17:01:38;0.63;;;0.63;;
1328;SDS011;658;48.820;9.354;2022-12-31T17:05:52;0.67;;;0.67;;
1328;SDS011;658;48.820;9.354;2022-12-31T17:10:07;0.70;;;0.70;;
1328;SDS011;658;48.820;9.354;2022-12-31T17:14:13;0.80;;;0.80;;
1328;SDS011;658;48.820;9.354;2022-12-31T17:18:19;0.90;;;0.90;;
1328;SDS011;658;48.820;9.354;2022-12-31T17:22:25;0.73;;;0.73;;
1328;SDS011;658;48.820;9.354;2022-12-31T17:26:34;0.70;;;0.70;;
1328;SDS011;658;48.820;9.354;2022-12-31T17:30:38;0.90;;;0.90;;
1328;SDS011;658;48.820;9.354;2022-12-31T17:34:49;1.00;;;0.93;;
1328;SDS011;658;48.820;9.354;2022-12-31T17:38:50;1.00;;;1.00;;
1328;SDS011;658;48.820;9.354;2022-12-31T17:42:50;1.10;;;1.10;;
1328;SDS011;658;48.820;9.354;2022-12-31T17:46:51;1.17;;;1.17;;
1328;SDS011;658;48.820;9.354;2022-12-31T17:50:57;1.40;;;1.27;;
1328;SDS011;658;48.820;9.354;2022-12-31T17:54:58;1.30;;;1.20;;
1328;SDS011;658;48.820;9.354;2022-12-31T17:58:59;1.33;;;1.30;;
1328;SDS011;658;48.820;9.354;2022-12-31T18:03:03;1.80;;;1.50;;
1328;SDS011;658;48.820;9.354;2022-12-31T18:07:04;1.40;;;1.30;;
1328;SDS011;658;48.820;9.354;2022-12-31T18:11:05;1.50;;;1.40;;
1328;SDS011;658;48.820;9.354;2022-12-31T18:15:06;1.77;;;1.40;;
1328;SDS011;658;48.820;9.354;2022-12-31T18:19:13;1.43;;;1.33;;
1328;SDS011;658;48.820;9.354;2022-12-31T18:23:34;1.90;;;1.80;;
1328;SDS011;658;48.820;9.354;2022-12-31T18:27:39;1.70;;;1.60;;
1328;SDS011;658;48.820;9.354;2022-12-31T18:31:41;1.83;;;1.73;;
1328;SDS011;658;48.820;9.354;2022-12-31T18:35:44;2.40;;;2.20;;
1328;SDS011;658;48.820;9.354;2022-12-31T18:39:46;1.80;;;1.70;;
1328;SDS011;658;48.820;9.354;2022-12-31T18:43:47;2.17;;;2.07;;
1328;SDS011;658;48.820;9.354;2022-12-31T18:47:48;2.00;;;1.90;;
1328;SDS011;658;48.820;9.354;2022-12-31T18:51:48;2.40;;;2.30;;
1328;SDS011;658;48.820;9.354;2022-12-31T18:55:54;2.00;;;1.90;;
1328;SDS011;658;48.820;9.354;2022-12-31T18:59:55;2.00;;;1.90;;
1328;SDS011;658;48.820;9.354;2022-12-31T19:03:57;2.43;;;2.27;;
1328;SDS011;658;48.820;9.354;2022-12-31T19:07:59;2.53;;;2.33;;
1328;SDS011;658;48.820;9.354;2022-12-31T19:12:00;2.93;;;2.73;;
1328;SDS011;658;48.820;9.354;2022-12-31T19:16:01;2.70;;;2.50;;
1328;SDS011;658;48.820;9.354;2022-12-31T19:20:01;3.03;;;2.73;;
1328;SDS011;658;48.820;9.354;2022-12-31T19:24:08;2.93;;;2.63;;
1328;SDS011;658;48.820;9.354;2022-12-31T19:28:25;2.67;;;2.47;;
1328;SDS011;658;48.820;9.354;2022-12-31T19:32:27;3.00;;;2.77;;
1328;SDS011;658;48.820;9.354;2022-12-31T19:36:27;3.30;;;3.10;;
1328;SDS011;658;48.820;9.354;2022-12-31T19:40:29;3.20;;;3.00;;
1328;SDS011;658;48.820;9.354;2022-12-31T19:44:30;3.33;;;3.13;;
1328;SDS011;658;48.820;9.354;2022-12-31T19:48:30;3.60;;;3.37;;
1328;SDS011;658;48.820;9.354;2022-12-31T19:52:31;4.33;;;3.93;;
1328;SDS011;658;48.820;9.354;2022-12-31T19:56:32;3.83;;;3.53;;
1328;SDS011;658;48.820;9.354;2022-12-31T20:00:33;4.27;;;3.97;;
1328;SDS011;658;48.820;9.354;2022-12-31T20:04:33;3.97;;;3.67;;
1328;SDS011;658;48.820;9.354;2022-12-31T20:08:35;4.07;;;3.77;;
1328;SDS011;658;48.820;9.354;2022-12-31T20:12:37;3.80;;;3.50;;
1328;SDS011;658;48.820;9.354;2022-12-31T20:16:37;5.10;;;4.70;;
1328;SDS011;658;48.820;9.354;2022-12-31T20:20:38;4.63;;;4.27;;
1328;SDS011;658;48.820;9.354;2022-12-31T20:24:45;5.17;;;4.77;;
1328;SDS011;658;48.820;9.354;2022-12-31T20:28:46;4.90;;;4.50;;
1328;SDS011;658;48.820;9.354;2022-12-31T20:32:50;5.37;;;4.87;;
1328;SDS011;658;48.820;9.354;2022-12-31T20:36:51;5.47;;;5.07;;
1328;SDS011;658;48.820;9.354;2022-12-31T20:40:52;5.00;;;4.70;;
1328;SDS011;658;48.820;9.354;2022-12-31T20:44:52;5.03;;;4.63;;
1328;SDS011;658;48.820;9.354;2022-12-31T20:48:54;5.17;;;4.77;;
1328;SDS011;658;48.820;9.354;2022-12-31T20:52:56;5.10;;;4.70;;
1328;SDS011;658;48.820;9.354;2022-12-31T20:56:57;5.43;;;5.03;;
1328;SDS011;658;48.820;9.354;2022-12-31T21:00:59;5.90;;;5.40;;
1328;SDS011;658;48.820;9.354;2022-12-31T21:04:59;5.37;;;4.97;;
1328;SDS011;658;48.820;9.354;2022-12-31T21:09:01;5.60;;;5.10;;
1328;SDS011;658;48.820;9.354;2022-12-31T21:13:03;6.00;;;5.50;;
1328;SDS011;658;48.820;9.354;2022-12-31T21:17:04;5.90;;;5.40;;
1328;SDS011;658;48.820;9.354;2022-12-31T21:21:05;5.80;;;5.20;;
1328;SDS011;658;48.820;9.354;2022-12-31T21:25:06;5.93;;;5.53;;
1328;SDS011;658;48.820;9.354;2022-12-31T21:29:06;5.93;;;5.43;;
1328;SDS011;658;48.820;9.354;2022-12-31T21:33:07;6.57;;;6.03;;
1328;SDS011;658;48.820;9.354;2022-12-31T21:37:08;7.23;;;6.63;;
1328;SDS011;658;48.820;9.354;2022-12-31T21:41:08;6.10;;;5.70;;
1328;SDS011;658;48.820;9.354;2022-12-31T21:45:28;6.63;;;6.03;;
1328;SDS011;658;48.820;9.354;2022-12-31T21:49:29;6.67;;;6.17;;
1328;SDS011;658;48.820;9.354;2022-12-31T21:53:29;6.37;;;5.87;;
1328;SDS011;658;48.820;9.354;2022-12-31T21:57:30;6.57;;;6.07;;
1328;SDS011;658;48.820;9.354;2022-12-31T22:01:31;6.80;;;6.30;;
1328;SDS011;658;48.820;9.354;2022-12-31T22:06:04;7.73;;;7.07;;
1328;SDS011;658;48.820;9.354;2022-12-31T22:10:19;6.07;;;5.60;;
1328;SDS011;658;48.820;9.354;2022-12-31T22:14:20;7.50;;;6.87;;
1328;SDS011;658;48.820;9.354;2022-12-31T22:18:21;6.83;;;6.23;;
1328;SDS011;658;48.820;9.354;2022-12-31T22:22:22;7.30;;;6.70;;
1328;SDS011;658;48.820;9.354;2022-12-31T22:26:23;8.00;;;7.30;;
1328;SDS011;658;48.820;9.354;2022-12-31T22:30:26;7.13;;;6.63;;
1328;SDS011;658;48.820;9.354;2022-12-31T22:34:27;6.97;;;6.47;;
1328;SDS011;658;48.820;9.354;2022-12-31T22:38:28;7.90;;;7.30;;
1328;SDS011;658;48.820;9.354;2022-12-31T22:42:29;8.37;;;7.70;;
1328;SDS011;658;48.820;9.354;2022-12-31T22:46:29;6.33;;;5.87;;
1328;SDS011;658;48.820;9.354;2022-12-31T22:50:31;7.93;;;7.33;;
1328;SDS011;658;48.820;9.354;2022-12-31T22:54:31;7.90;;;7.30;;
1328;SDS011;658;48.820;9.354;2022-12-31T22:58:32;8.13;;;7.33;;
1328;SDS011;658;48.820;9.354;2022-12-31T23:02:33;7.27;;;6.57;;
1328;SDS011;658;48.820;9.354;2022-12-31T23:06:34;8.70;;;8.00;;
1328;SDS011;658;48.820;9.354;2022-12-31T23:10:44;9.30;;;8.50;;
1328;SDS011;658;48.820;9.354;2022-12-31T23:15:04;11.30;;;10.30;;
1328;SDS011;658;48.820;9.354;2022-12-31T23:19:24;13.83;;;12.60;;
1328;SDS011;658;48.820;9.354;2022-12-31T23:23:43;15.13;;;13.83;;
1328;SDS011;658;48.820;9.354;2022-12-31T23:27:43;13.90;;;12.83;;
1328;SDS011;658;48.820;9.354;2022-12-31T23:31:44;15.47;;;14.27;;
1328;SDS011;658;48.820;9.354;2022-12-31T23:35:45;16.93;;;15.50;;
1328;SDS011;658;48.820;9.354;2022-12-31T23:39:46;17.83;;;16.33;;
1328;SDS011;658;48.820;9.354;2022-12-31T23:43:46;16.70;;;15.50;;
1328;SDS011;658;48.820;9.354;2022-12-31T23:47:48;18.40;;;16.80;;
1328;SDS011;658;48.820;9.354;2022-12-31T23:51:48;19.50;;;17.90;;
1328;SDS011;658;48.820;9.354;2022-12-31T23:55:49;19.30;;;17.40;;
1328;SDS011;658;48.820;9.354;2022-12-31T23:59:51;19.80;;;18.00;;
